sensor_id;sensor_type;location;lat;lon;timestamp;P1;durP1;ratioP1;P2;durP2;ratioP2
46643;SDS011;32371;51.032;5.816;2024-01-07T00:02:13;26.70;;;11.77;;
46643;SDS011;32371;51.032;5.816;2024-01-07T00:04:39;24.20;;;11.25;;
46643;SDS011;32371;51.032;5.816;2024-01-07T00:07:05;22.10;;;10.07;;
46643;SDS011;32371;51.032;5.816;2024-01-07T00:09:31;19.23;;;9.70;;
46643;SDS011;32371;51.032;5.816;2024-01-07T00:11:56;19.20;;;9.70;;
46643;SDS011;32371;51.032;5.816;2024-01-07T00:14:21;16.88;;;8.55;;
46643;SDS011;32371;51.032;5.816;2024-01-07T00:16:47;18.73;;;9.25;;
46643;SDS011;32371;51.032;5.816;2024-01-07T00:19:12;20.60;;;10.10;;
46643;SDS011;32371;51.032;5.816;2024-01-07T00:21:38;20.50;;;9.20;;
46643;SDS011;32371;51.032;5.816;2024-01-07T00:24:03;17.17;;;9.50;;
46643;SDS011;32371;51.032;5.816;2024-01-07T00:26:29;20.35;;;9.75;;
46643;SDS011;32371;51.032;5.816;2024-01-07T00:28:54;21.38;;;9.70;;
46643;SDS011;32371;51.032;5.816;2024-01-07T00:31:20;19.45;;;8.80;;
46643;SDS011;32371;51.032;5.816;2024-01-07T00:33:45;20.88;;;9.18;;
46643;SDS011;32371;51.032;5.816;2024-01-07T00:36:10;19.65;;;10.60;;
46643;SDS011;32371;51.032;5.816;2024-01-07T00:38:36;21.30;;;9.70;;
46643;SDS011;32371;51.032;5.816;2024-01-07T00:41:01;18.35;;;9.23;;
46643;SDS011;32371;51.032;5.816;2024-01-07T00:43:26;17.55;;;9.20;;
46643;SDS011;32371;51.032;5.816;2024-01-07T00:45:52;20.92;;;9.52;;
46643;SDS011;32371;51.032;5.816;2024-01-07T00:48:17;22.55;;;10.05;;
46643;SDS011;32371;51.032;5.816;2024-01-07T00:50:42;17.00;;;8.85;;
46643;SDS011;32371;51.032;5.816;2024-01-07T00:53:08;19.50;;;9.02;;
46643;SDS011;32371;51.032;5.816;2024-01-07T00:55:33;15.68;;;9.00;;
46643;SDS011;32371;51.032;5.816;2024-01-07T00:58:00;21.00;;;9.50;;
46643;SDS011;32371;51.032;5.816;2024-01-07T01:00:26;20.40;;;9.52;;
46643;SDS011;32371;51.032;5.816;2024-01-07T01:02:52;16.50;;;9.38;;
46643;SDS011;32371;51.032;5.816;2024-01-07T01:05:17;17.27;;;8.95;;
46643;SDS011;32371;51.032;5.816;2024-01-07T01:07:43;16.70;;;8.63;;
46643;SDS011;32371;51.032;5.816;2024-01-07T01:10:08;21.45;;;9.52;;
46643;SDS011;32371;51.032;5.816;2024-01-07T01:12:34;19.45;;;9.23;;
46643;SDS011;32371;51.032;5.816;2024-01-07T01:14:59;23.88;;;10.75;;
46643;SDS011;32371;51.032;5.816;2024-01-07T01:17:25;16.80;;;9.13;;
46643;SDS011;32371;51.032;5.816;2024-01-07T01:19:50;19.73;;;9.48;;
46643;SDS011;32371;51.032;5.816;2024-01-07T01:22:15;20.45;;;10.25;;
46643;SDS011;32371;51.032;5.816;2024-01-07T01:24:41;21.90;;;9.82;;
46643;SDS011;32371;51.032;5.816;2024-01-07T01:27:08;20.17;;;9.98;;
46643;SDS011;32371;51.032;5.816;2024-01-07T01:29:33;22.45;;;10.38;;
46643;SDS011;32371;51.032;5.816;2024-01-07T01:31:59;22.55;;;10.52;;
46643;SDS011;32371;51.032;5.816;2024-01-07T01:34:24;20.48;;;10.55;;
46643;SDS011;32371;51.032;5.816;2024-01-07T01:36:50;20.52;;;9.65;;
46643;SDS011;32371;51.032;5.816;2024-01-07T01:39:15;20.63;;;9.55;;
46643;SDS011;32371;51.032;5.816;2024-01-07T01:41:41;18.48;;;8.90;;
46643;SDS011;32371;51.032;5.816;2024-01-07T01:44:06;24.33;;;10.32;;
46643;SDS011;32371;51.032;5.816;2024-01-07T01:46:31;22.80;;;9.88;;
46643;SDS011;32371;51.032;5.816;2024-01-07T01:48:57;22.30;;;9.75;;
46643;SDS011;32371;51.032;5.816;2024-01-07T01:51:23;23.05;;;9.57;;
46643;SDS011;32371;51.032;5.816;2024-01-07T01:53:48;23.63;;;10.40;;
46643;SDS011;32371;51.032;5.816;2024-01-07T01:56:15;20.52;;;10.18;;
46643;SDS011;32371;51.032;5.816;2024-01-07T01:58:42;25.95;;;11.02;;
46643;SDS011;32371;51.032;5.816;2024-01-07T02:01:07;23.48;;;9.10;;
46643;SDS011;32371;51.032;5.816;2024-01-07T02:03:32;18.20;;;10.40;;
46643;SDS011;32371;51.032;5.816;2024-01-07T02:05:58;19.73;;;9.55;;
46643;SDS011;32371;51.032;5.816;2024-01-07T02:08:23;25.02;;;9.45;;
46643;SDS011;32371;51.032;5.816;2024-01-07T02:10:50;24.90;;;10.13;;
46643;SDS011;32371;51.032;5.816;2024-01-07T02:13:15;19.77;;;9.65;;
46643;SDS011;32371;51.032;5.816;2024-01-07T02:15:40;24.85;;;10.13;;
46643;SDS011;32371;51.032;5.816;2024-01-07T02:18:06;21.08;;;9.80;;
46643;SDS011;32371;51.032;5.816;2024-01-07T02:20:31;24.98;;;10.13;;
46643;SDS011;32371;51.032;5.816;2024-01-07T02:22:56;25.17;;;11.27;;
46643;SDS011;32371;51.032;5.816;2024-01-07T02:25:26;26.40;;;10.40;;
46643;SDS011;32371;51.032;5.816;2024-01-07T02:27:51;22.80;;;10.65;;
46643;SDS011;32371;51.032;5.816;2024-01-07T02:30:17;21.25;;;10.45;;
46643;SDS011;32371;51.032;5.816;2024-01-07T02:32:42;22.73;;;10.70;;
46643;SDS011;32371;51.032;5.816;2024-01-07T02:35:08;23.77;;;10.60;;
46643;SDS011;32371;51.032;5.816;2024-01-07T02:37:33;26.17;;;11.00;;
46643;SDS011;32371;51.032;5.816;2024-01-07T02:39:59;24.38;;;10.05;;
46643;SDS011;32371;51.032;5.816;2024-01-07T02:42:24;24.98;;;10.48;;
46643;SDS011;32371;51.032;5.816;2024-01-07T02:44:50;18.48;;;9.50;;
46643;SDS011;32371;51.032;5.816;2024-01-07T02:47:15;18.95;;;9.07;;
46643;SDS011;32371;51.032;5.816;2024-01-07T02:49:40;25.20;;;8.25;;
46643;SDS011;32371;51.032;5.816;2024-01-07T02:52:06;20.60;;;8.68;;
46643;SDS011;32371;51.032;5.816;2024-01-07T02:54:31;16.80;;;8.05;;
46643;SDS011;32371;51.032;5.816;2024-01-07T02:56:56;19.10;;;7.97;;
46643;SDS011;32371;51.032;5.816;2024-01-07T02:59:22;21.95;;;9.13;;
46643;SDS011;32371;51.032;5.816;2024-01-07T03:01:47;17.25;;;8.15;;
46643;SDS011;32371;51.032;5.816;2024-01-07T03:04:16;17.90;;;8.48;;
46643;SDS011;32371;51.032;5.816;2024-01-07T03:06:41;20.45;;;8.50;;
46643;SDS011;32371;51.032;5.816;2024-01-07T03:09:07;21.42;;;8.48;;
46643;SDS011;32371;51.032;5.816;2024-01-07T03:11:33;16.15;;;7.53;;
46643;SDS011;32371;51.032;5.816;2024-01-07T03:13:58;16.67;;;7.47;;
46643;SDS011;32371;51.032;5.816;2024-01-07T03:16:24;15.75;;;7.80;;
46643;SDS011;32371;51.032;5.816;2024-01-07T03:18:50;18.95;;;7.80;;
46643;SDS011;32371;51.032;5.816;2024-01-07T03:21:19;14.32;;;6.82;;
46643;SDS011;32371;51.032;5.816;2024-01-07T03:23:45;15.85;;;7.35;;
46643;SDS011;32371;51.032;5.816;2024-01-07T03:26:11;17.08;;;6.65;;
46643;SDS011;32371;51.032;5.816;2024-01-07T03:28:37;15.40;;;7.00;;
46643;SDS011;32371;51.032;5.816;2024-01-07T03:31:07;15.25;;;7.38;;
46643;SDS011;32371;51.032;5.816;2024-01-07T03:33:33;17.15;;;7.28;;
46643;SDS011;32371;51.032;5.816;2024-01-07T03:35:59;14.90;;;7.30;;
46643;SDS011;32371;51.032;5.816;2024-01-07T03:38:24;18.90;;;7.00;;
46643;SDS011;32371;51.032;5.816;2024-01-07T03:40:49;15.68;;;7.65;;
46643;SDS011;32371;51.032;5.816;2024-01-07T03:43:15;17.17;;;7.53;;
46643;SDS011;32371;51.032;5.816;2024-01-07T03:45:40;19.17;;;7.30;;
46643;SDS011;32371;51.032;5.816;2024-01-07T03:48:06;13.93;;;5.95;;
46643;SDS011;32371;51.032;5.816;2024-01-07T03:50:32;14.30;;;6.80;;
46643;SDS011;32371;51.032;5.816;2024-01-07T03:52:57;13.57;;;6.70;;
46643;SDS011;32371;51.032;5.816;2024-01-07T03:55:22;16.52;;;6.93;;
46643;SDS011;32371;51.032;5.816;2024-01-07T03:57:48;17.63;;;6.82;;
46643;SDS011;32371;51.032;5.816;2024-01-07T04:00:13;16.75;;;6.85;;
46643;SDS011;32371;51.032;5.816;2024-01-07T04:02:39;17.17;;;7.00;;
46643;SDS011;32371;51.032;5.816;2024-01-07T04:05:04;14.10;;;6.57;;
46643;SDS011;32371;51.032;5.816;2024-01-07T04:07:30;17.85;;;6.82;;
46643;SDS011;32371;51.032;5.816;2024-01-07T04:09:56;15.45;;;7.20;;
46643;SDS011;32371;51.032;5.816;2024-01-07T04:12:21;17.30;;;6.68;;
46643;SDS011;32371;51.032;5.816;2024-01-07T04:14:47;17.90;;;7.47;;
46643;SDS011;32371;51.032;5.816;2024-01-07T04:17:12;15.45;;;6.70;;
46643;SDS011;32371;51.032;5.816;2024-01-07T04:19:37;12.63;;;6.45;;
46643;SDS011;32371;51.032;5.816;2024-01-07T04:22:05;16.50;;;8.18;;
46643;SDS011;32371;51.032;5.816;2024-01-07T04:24:31;17.75;;;7.35;;
46643;SDS011;32371;51.032;5.816;2024-01-07T04:26:56;18.13;;;7.15;;
46643;SDS011;32371;51.032;5.816;2024-01-07T04:29:22;14.88;;;7.18;;
46643;SDS011;32371;51.032;5.816;2024-01-07T04:31:47;13.63;;;7.07;;
46643;SDS011;32371;51.032;5.816;2024-01-07T04:34:12;19.00;;;7.32;;
46643;SDS011;32371;51.032;5.816;2024-01-07T04:36:38;13.90;;;6.63;;
46643;SDS011;32371;51.032;5.816;2024-01-07T04:39:03;15.05;;;6.80;;
46643;SDS011;32371;51.032;5.816;2024-01-07T04:41:29;15.20;;;7.38;;
46643;SDS011;32371;51.032;5.816;2024-01-07T04:43:54;14.00;;;6.38;;
46643;SDS011;32371;51.032;5.816;2024-01-07T04:46:19;11.50;;;5.80;;
46643;SDS011;32371;51.032;5.816;2024-01-07T04:48:45;15.48;;;7.28;;
46643;SDS011;32371;51.032;5.816;2024-01-07T04:51:10;14.02;;;6.18;;
46643;SDS011;32371;51.032;5.816;2024-01-07T04:53:36;13.23;;;6.57;;
46643;SDS011;32371;51.032;5.816;2024-01-07T04:56:02;16.10;;;7.47;;
46643;SDS011;32371;51.032;5.816;2024-01-07T04:58:27;14.13;;;6.53;;
46643;SDS011;32371;51.032;5.816;2024-01-07T05:00:53;11.50;;;6.38;;
46643;SDS011;32371;51.032;5.816;2024-01-07T05:03:18;13.48;;;5.80;;
46643;SDS011;32371;51.032;5.816;2024-01-07T05:05:43;13.02;;;6.43;;
46643;SDS011;32371;51.032;5.816;2024-01-07T05:08:09;12.25;;;6.55;;
46643;SDS011;32371;51.032;5.816;2024-01-07T05:10:34;11.65;;;5.95;;
46643;SDS011;32371;51.032;5.816;2024-01-07T05:12:59;10.13;;;5.70;;
46643;SDS011;32371;51.032;5.816;2024-01-07T05:15:30;16.13;;;6.75;;
46643;SDS011;32371;51.032;5.816;2024-01-07T05:17:55;9.77;;;5.60;;
46643;SDS011;32371;51.032;5.816;2024-01-07T05:20:21;13.90;;;6.90;;
46643;SDS011;32371;51.032;5.816;2024-01-07T05:22:46;12.88;;;6.82;;
46643;SDS011;32371;51.032;5.816;2024-01-07T05:25:11;12.15;;;6.25;;
46643;SDS011;32371;51.032;5.816;2024-01-07T05:27:37;16.48;;;6.68;;
46643;SDS011;32371;51.032;5.816;2024-01-07T05:30:02;14.13;;;5.45;;
46643;SDS011;32371;51.032;5.816;2024-01-07T05:32:28;15.85;;;7.72;;
46643;SDS011;32371;51.032;5.816;2024-01-07T05:34:53;14.80;;;6.55;;
46643;SDS011;32371;51.032;5.816;2024-01-07T05:37:19;12.00;;;6.80;;
46643;SDS011;32371;51.032;5.816;2024-01-07T05:39:44;14.15;;;6.50;;
46643;SDS011;32371;51.032;5.816;2024-01-07T05:42:10;14.13;;;7.70;;
46643;SDS011;32371;51.032;5.816;2024-01-07T05:44:35;17.05;;;7.07;;
46643;SDS011;32371;51.032;5.816;2024-01-07T05:47:01;15.60;;;7.68;;
46643;SDS011;32371;51.032;5.816;2024-01-07T05:49:26;14.52;;;7.07;;
46643;SDS011;32371;51.032;5.816;2024-01-07T05:51:52;14.40;;;6.90;;
46643;SDS011;32371;51.032;5.816;2024-01-07T05:54:17;18.70;;;7.75;;
46643;SDS011;32371;51.032;5.816;2024-01-07T05:56:43;13.65;;;7.32;;
46643;SDS011;32371;51.032;5.816;2024-01-07T05:59:08;16.42;;;7.32;;
46643;SDS011;32371;51.032;5.816;2024-01-07T06:01:34;15.63;;;6.93;;
46643;SDS011;32371;51.032;5.816;2024-01-07T06:04:00;15.13;;;7.47;;
46643;SDS011;32371;51.032;5.816;2024-01-07T06:06:25;16.65;;;8.32;;
46643;SDS011;32371;51.032;5.816;2024-01-07T06:08:50;17.85;;;7.82;;
46643;SDS011;32371;51.032;5.816;2024-01-07T06:11:16;14.63;;;6.70;;
46643;SDS011;32371;51.032;5.816;2024-01-07T06:13:45;15.85;;;8.02;;
46643;SDS011;32371;51.032;5.816;2024-01-07T06:16:11;16.25;;;8.95;;
46643;SDS011;32371;51.032;5.816;2024-01-07T06:18:36;21.27;;;9.60;;
46643;SDS011;32371;51.032;5.816;2024-01-07T06:21:01;17.63;;;8.27;;
46643;SDS011;32371;51.032;5.816;2024-01-07T06:23:27;19.58;;;8.63;;
46643;SDS011;32371;51.032;5.816;2024-01-07T06:25:52;19.80;;;8.18;;
46643;SDS011;32371;51.032;5.816;2024-01-07T06:28:18;16.73;;;8.15;;
46643;SDS011;32371;51.032;5.816;2024-01-07T06:30:43;17.05;;;7.70;;
46643;SDS011;32371;51.032;5.816;2024-01-07T06:33:08;19.08;;;8.38;;
46643;SDS011;32371;51.032;5.816;2024-01-07T06:35:34;17.20;;;6.93;;
46643;SDS011;32371;51.032;5.816;2024-01-07T06:37:59;14.85;;;6.32;;
46643;SDS011;32371;51.032;5.816;2024-01-07T06:40:25;12.13;;;6.63;;
46643;SDS011;32371;51.032;5.816;2024-01-07T06:42:51;17.23;;;6.65;;
46643;SDS011;32371;51.032;5.816;2024-01-07T06:45:16;12.80;;;5.93;;
46643;SDS011;32371;51.032;5.816;2024-01-07T06:47:42;13.68;;;6.63;;
46643;SDS011;32371;51.032;5.816;2024-01-07T06:50:08;17.98;;;7.72;;
46643;SDS011;32371;51.032;5.816;2024-01-07T06:52:34;16.85;;;7.70;;
46643;SDS011;32371;51.032;5.816;2024-01-07T06:55:00;13.98;;;6.60;;
46643;SDS011;32371;51.032;5.816;2024-01-07T06:57:25;16.17;;;7.47;;
46643;SDS011;32371;51.032;5.816;2024-01-07T06:59:51;15.32;;;7.97;;
46643;SDS011;32371;51.032;5.816;2024-01-07T07:02:16;15.35;;;7.78;;
46643;SDS011;32371;51.032;5.816;2024-01-07T07:04:42;15.18;;;8.02;;
46643;SDS011;32371;51.032;5.816;2024-01-07T07:07:07;19.33;;;7.85;;
46643;SDS011;32371;51.032;5.816;2024-01-07T07:09:33;18.05;;;7.45;;
46643;SDS011;32371;51.032;5.816;2024-01-07T07:11:59;12.20;;;7.30;;
46643;SDS011;32371;51.032;5.816;2024-01-07T07:14:24;17.05;;;8.55;;
46643;SDS011;32371;51.032;5.816;2024-01-07T07:16:50;12.77;;;7.15;;
46643;SDS011;32371;51.032;5.816;2024-01-07T07:19:15;13.77;;;7.85;;
46643;SDS011;32371;51.032;5.816;2024-01-07T07:21:41;16.02;;;7.43;;
46643;SDS011;32371;51.032;5.816;2024-01-07T07:24:08;19.42;;;8.05;;
46643;SDS011;32371;51.032;5.816;2024-01-07T07:26:33;17.00;;;8.10;;
46643;SDS011;32371;51.032;5.816;2024-01-07T07:29:01;12.63;;;7.50;;
46643;SDS011;32371;51.032;5.816;2024-01-07T07:31:27;20.50;;;8.63;;
46643;SDS011;32371;51.032;5.816;2024-01-07T07:33:52;18.52;;;8.13;;
46643;SDS011;32371;51.032;5.816;2024-01-07T07:36:17;18.98;;;8.20;;
46643;SDS011;32371;51.032;5.816;2024-01-07T07:38:43;16.15;;;8.55;;
46643;SDS011;32371;51.032;5.816;2024-01-07T07:41:08;18.02;;;7.57;;
46643;SDS011;32371;51.032;5.816;2024-01-07T07:43:34;14.77;;;7.72;;
46643;SDS011;32371;51.032;5.816;2024-01-07T07:45:59;15.60;;;7.63;;
46643;SDS011;32371;51.032;5.816;2024-01-07T07:48:26;15.05;;;7.90;;
46643;SDS011;32371;51.032;5.816;2024-01-07T07:50:53;18.58;;;8.52;;
46643;SDS011;32371;51.032;5.816;2024-01-07T07:53:18;14.27;;;8.98;;
46643;SDS011;32371;51.032;5.816;2024-01-07T07:55:43;15.88;;;7.47;;
46643;SDS011;32371;51.032;5.816;2024-01-07T07:58:09;13.80;;;6.50;;
46643;SDS011;32371;51.032;5.816;2024-01-07T08:00:34;12.63;;;6.97;;
46643;SDS011;32371;51.032;5.816;2024-01-07T08:03:00;13.52;;;8.15;;
46643;SDS011;32371;51.032;5.816;2024-01-07T08:05:25;13.45;;;7.57;;
46643;SDS011;32371;51.032;5.816;2024-01-07T08:07:50;13.93;;;7.63;;
46643;SDS011;32371;51.032;5.816;2024-01-07T08:10:16;13.25;;;6.70;;
46643;SDS011;32371;51.032;5.816;2024-01-07T08:12:41;13.55;;;6.72;;
46643;SDS011;32371;51.032;5.816;2024-01-07T08:15:07;14.60;;;5.97;;
46643;SDS011;32371;51.032;5.816;2024-01-07T08:17:32;13.07;;;7.30;;
46643;SDS011;32371;51.032;5.816;2024-01-07T08:19:58;10.82;;;6.75;;
46643;SDS011;32371;51.032;5.816;2024-01-07T08:22:23;11.13;;;6.03;;
46643;SDS011;32371;51.032;5.816;2024-01-07T08:24:49;13.82;;;6.63;;
46643;SDS011;32371;51.032;5.816;2024-01-07T08:27:15;10.60;;;6.78;;
46643;SDS011;32371;51.032;5.816;2024-01-07T08:29:42;10.15;;;5.75;;
46643;SDS011;32371;51.032;5.816;2024-01-07T08:32:09;11.80;;;7.03;;
46643;SDS011;32371;51.032;5.816;2024-01-07T08:34:34;13.82;;;6.18;;
46643;SDS011;32371;51.032;5.816;2024-01-07T08:37:00;12.70;;;6.88;;
46643;SDS011;32371;51.032;5.816;2024-01-07T08:39:25;13.98;;;7.20;;
46643;SDS011;32371;51.032;5.816;2024-01-07T08:41:50;13.20;;;6.32;;
46643;SDS011;32371;51.032;5.816;2024-01-07T08:44:16;12.23;;;5.78;;
46643;SDS011;32371;51.032;5.816;2024-01-07T08:46:41;15.27;;;7.15;;
46643;SDS011;32371;51.032;5.816;2024-01-07T08:49:07;13.00;;;8.10;;
46643;SDS011;32371;51.032;5.816;2024-01-07T08:51:32;12.05;;;7.07;;
46643;SDS011;32371;51.032;5.816;2024-01-07T08:53:57;14.52;;;7.47;;
46643;SDS011;32371;51.032;5.816;2024-01-07T08:56:24;15.98;;;8.07;;
46643;SDS011;32371;51.032;5.816;2024-01-07T08:58:50;16.33;;;7.50;;
46643;SDS011;32371;51.032;5.816;2024-01-07T09:01:15;17.85;;;8.65;;
46643;SDS011;32371;51.032;5.816;2024-01-07T09:03:41;19.50;;;8.32;;
46643;SDS011;32371;51.032;5.816;2024-01-07T09:06:07;20.02;;;8.57;;
46643;SDS011;32371;51.032;5.816;2024-01-07T09:08:33;14.63;;;7.80;;
46643;SDS011;32371;51.032;5.816;2024-01-07T09:10:59;17.95;;;8.38;;
46643;SDS011;32371;51.032;5.816;2024-01-07T09:13:25;16.08;;;8.20;;
46643;SDS011;32371;51.032;5.816;2024-01-07T09:15:51;19.17;;;7.82;;
46643;SDS011;32371;51.032;5.816;2024-01-07T09:18:16;16.02;;;8.10;;
46643;SDS011;32371;51.032;5.816;2024-01-07T09:20:41;16.63;;;8.43;;
46643;SDS011;32371;51.032;5.816;2024-01-07T09:23:07;15.02;;;7.55;;
46643;SDS011;32371;51.032;5.816;2024-01-07T09:25:32;15.75;;;7.93;;
46643;SDS011;32371;51.032;5.816;2024-01-07T09:27:57;20.95;;;8.02;;
46643;SDS011;32371;51.032;5.816;2024-01-07T09:30:23;15.98;;;7.32;;
46643;SDS011;32371;51.032;5.816;2024-01-07T09:32:48;17.73;;;8.18;;
46643;SDS011;32371;51.032;5.816;2024-01-07T09:35:15;14.10;;;7.35;;
46643;SDS011;32371;51.032;5.816;2024-01-07T09:37:40;14.75;;;7.82;;
46643;SDS011;32371;51.032;5.816;2024-01-07T09:40:06;13.75;;;7.60;;
46643;SDS011;32371;51.032;5.816;2024-01-07T09:42:31;16.40;;;7.53;;
46643;SDS011;32371;51.032;5.816;2024-01-07T09:44:57;13.90;;;7.45;;
46643;SDS011;32371;51.032;5.816;2024-01-07T09:47:26;13.80;;;6.45;;
46643;SDS011;32371;51.032;5.816;2024-01-07T09:49:51;14.18;;;7.35;;
46643;SDS011;32371;51.032;5.816;2024-01-07T09:52:17;12.50;;;7.22;;
46643;SDS011;32371;51.032;5.816;2024-01-07T09:54:43;14.68;;;6.80;;
46643;SDS011;32371;51.032;5.816;2024-01-07T09:57:10;15.10;;;7.80;;
46643;SDS011;32371;51.032;5.816;2024-01-07T09:59:36;16.45;;;8.40;;
46643;SDS011;32371;51.032;5.816;2024-01-07T10:02:04;12.82;;;7.45;;
46643;SDS011;32371;51.032;5.816;2024-01-07T10:04:29;14.20;;;7.82;;
46643;SDS011;32371;51.032;5.816;2024-01-07T10:06:55;13.63;;;7.78;;
46643;SDS011;32371;51.032;5.816;2024-01-07T10:09:24;15.20;;;7.38;;
46643;SDS011;32371;51.032;5.816;2024-01-07T10:11:54;17.23;;;9.40;;
46643;SDS011;32371;51.032;5.816;2024-01-07T10:14:19;19.75;;;8.48;;
46643;SDS011;32371;51.032;5.816;2024-01-07T10:16:47;16.02;;;7.40;;
46643;SDS011;32371;51.032;5.816;2024-01-07T10:19:17;12.07;;;8.20;;
46643;SDS011;32371;51.032;5.816;2024-01-07T10:24:17;16.48;;;7.50;;
46643;SDS011;32371;51.032;5.816;2024-01-07T10:26:43;12.40;;;7.35;;
46643;SDS011;32371;51.032;5.816;2024-01-07T10:29:08;14.57;;;8.60;;
46643;SDS011;32371;51.032;5.816;2024-01-07T10:31:34;18.48;;;8.23;;
46643;SDS011;32371;51.032;5.816;2024-01-07T10:34:00;16.58;;;7.75;;
46643;SDS011;32371;51.032;5.816;2024-01-07T10:36:25;21.00;;;9.27;;
46643;SDS011;32371;51.032;5.816;2024-01-07T10:38:51;14.38;;;7.22;;
46643;SDS011;32371;51.032;5.816;2024-01-07T10:41:20;17.95;;;8.10;;
46643;SDS011;32371;51.032;5.816;2024-01-07T10:43:48;14.02;;;6.70;;
46643;SDS011;32371;51.032;5.816;2024-01-07T10:46:14;16.13;;;8.13;;
46643;SDS011;32371;51.032;5.816;2024-01-07T10:51:41;14.68;;;7.88;;
46643;SDS011;32371;51.032;5.816;2024-01-07T10:54:08;15.35;;;7.80;;
46643;SDS011;32371;51.032;5.816;2024-01-07T10:56:44;17.90;;;8.77;;
46643;SDS011;32371;51.032;5.816;2024-01-07T10:59:10;15.02;;;7.47;;
46643;SDS011;32371;51.032;5.816;2024-01-07T11:01:36;14.68;;;8.05;;
46643;SDS011;32371;51.032;5.816;2024-01-07T11:04:10;16.63;;;8.68;;
46643;SDS011;32371;51.032;5.816;2024-01-07T11:06:46;12.38;;;7.88;;
46643;SDS011;32371;51.032;5.816;2024-01-07T11:11:59;15.40;;;7.78;;
46643;SDS011;32371;51.032;5.816;2024-01-07T11:14:43;15.48;;;8.27;;
46643;SDS011;32371;51.032;5.816;2024-01-07T11:20:06;13.98;;;8.15;;
46643;SDS011;32371;51.032;5.816;2024-01-07T11:22:37;12.75;;;7.07;;
46643;SDS011;32371;51.032;5.816;2024-01-07T11:25:20;17.20;;;8.18;;
46643;SDS011;32371;51.032;5.816;2024-01-07T11:27:58;17.85;;;7.65;;
46643;SDS011;32371;51.032;5.816;2024-01-07T11:30:24;21.40;;;8.75;;
46643;SDS011;32371;51.032;5.816;2024-01-07T11:32:57;12.23;;;8.10;;
46643;SDS011;32371;51.032;5.816;2024-01-07T11:38:19;21.30;;;9.70;;
46643;SDS011;32371;51.032;5.816;2024-01-07T11:40:44;19.23;;;9.63;;
46643;SDS011;32371;51.032;5.816;2024-01-07T11:43:11;18.35;;;8.55;;
46643;SDS011;32371;51.032;5.816;2024-01-07T11:45:36;17.10;;;8.85;;
46643;SDS011;32371;51.032;5.816;2024-01-07T11:48:02;17.42;;;8.35;;
46643;SDS011;32371;51.032;5.816;2024-01-07T11:50:27;17.88;;;9.43;;
46643;SDS011;32371;51.032;5.816;2024-01-07T11:52:53;15.02;;;9.27;;
46643;SDS011;32371;51.032;5.816;2024-01-07T11:55:18;15.90;;;8.13;;
46643;SDS011;32371;51.032;5.816;2024-01-07T11:57:45;17.00;;;9.18;;
46643;SDS011;32371;51.032;5.816;2024-01-07T12:00:11;15.35;;;7.47;;
46643;SDS011;32371;51.032;5.816;2024-01-07T12:02:37;18.85;;;9.32;;
46643;SDS011;32371;51.032;5.816;2024-01-07T12:05:02;15.90;;;8.57;;
46643;SDS011;32371;51.032;5.816;2024-01-07T12:07:29;16.75;;;8.82;;
46643;SDS011;32371;51.032;5.816;2024-01-07T12:09:55;22.05;;;9.60;;
46643;SDS011;32371;51.032;5.816;2024-01-07T12:12:21;12.38;;;7.85;;
46643;SDS011;32371;51.032;5.816;2024-01-07T12:14:46;13.40;;;8.63;;
46643;SDS011;32371;51.032;5.816;2024-01-07T12:17:12;12.88;;;7.93;;
46643;SDS011;32371;51.032;5.816;2024-01-07T12:19:37;13.93;;;8.25;;
46643;SDS011;32371;51.032;5.816;2024-01-07T12:22:03;13.55;;;7.35;;
46643;SDS011;32371;51.032;5.816;2024-01-07T12:24:29;16.70;;;7.80;;
46643;SDS011;32371;51.032;5.816;2024-01-07T12:26:54;11.63;;;7.03;;
46643;SDS011;32371;51.032;5.816;2024-01-07T12:29:19;13.20;;;7.07;;
46643;SDS011;32371;51.032;5.816;2024-01-07T12:31:46;8.63;;;5.55;;
46643;SDS011;32371;51.032;5.816;2024-01-07T12:34:16;11.15;;;6.05;;
46643;SDS011;32371;51.032;5.816;2024-01-07T12:36:42;12.38;;;6.38;;
46643;SDS011;32371;51.032;5.816;2024-01-07T12:39:08;12.95;;;6.30;;
46643;SDS011;32371;51.032;5.816;2024-01-07T12:41:33;8.85;;;6.40;;
46643;SDS011;32371;51.032;5.816;2024-01-07T12:43:59;11.77;;;7.15;;
46643;SDS011;32371;51.032;5.816;2024-01-07T12:46:24;11.23;;;6.22;;
46643;SDS011;32371;51.032;5.816;2024-01-07T12:48:50;12.35;;;5.93;;
46643;SDS011;32371;51.032;5.816;2024-01-07T12:51:15;10.55;;;6.55;;
46643;SDS011;32371;51.032;5.816;2024-01-07T12:53:41;10.15;;;5.13;;
46643;SDS011;32371;51.032;5.816;2024-01-07T12:56:06;11.18;;;5.07;;
46643;SDS011;32371;51.032;5.816;2024-01-07T12:58:32;8.25;;;5.00;;
46643;SDS011;32371;51.032;5.816;2024-01-07T13:00:57;10.07;;;5.30;;
46643;SDS011;32371;51.032;5.816;2024-01-07T13:03:23;12.27;;;6.00;;
46643;SDS011;32371;51.032;5.816;2024-01-07T13:05:50;12.00;;;5.78;;
46643;SDS011;32371;51.032;5.816;2024-01-07T13:08:16;12.60;;;5.32;;
46643;SDS011;32371;51.032;5.816;2024-01-07T13:10:43;8.30;;;5.38;;
46643;SDS011;32371;51.032;5.816;2024-01-07T13:13:09;12.45;;;6.50;;
46643;SDS011;32371;51.032;5.816;2024-01-07T13:15:37;9.10;;;5.78;;
46643;SDS011;32371;51.032;5.816;2024-01-07T13:18:03;11.48;;;6.45;;
46643;SDS011;32371;51.032;5.816;2024-01-07T13:20:28;10.48;;;5.90;;
46643;SDS011;32371;51.032;5.816;2024-01-07T13:22:53;9.18;;;5.78;;
46643;SDS011;32371;51.032;5.816;2024-01-07T13:25:19;11.05;;;5.65;;
46643;SDS011;32371;51.032;5.816;2024-01-07T13:27:44;12.70;;;5.93;;
46643;SDS011;32371;51.032;5.816;2024-01-07T13:30:11;9.88;;;6.55;;
46643;SDS011;32371;51.032;5.816;2024-01-07T13:32:36;7.05;;;5.18;;
46643;SDS011;32371;51.032;5.816;2024-01-07T13:35:05;9.15;;;5.03;;
46643;SDS011;32371;51.032;5.816;2024-01-07T13:37:31;9.52;;;5.35;;
46643;SDS011;32371;51.032;5.816;2024-01-07T13:39:57;10.23;;;5.18;;
46643;SDS011;32371;51.032;5.816;2024-01-07T13:42:22;8.05;;;5.05;;
46643;SDS011;32371;51.032;5.816;2024-01-07T13:44:48;9.00;;;5.25;;
46643;SDS011;32371;51.032;5.816;2024-01-07T13:47:13;7.53;;;5.00;;
46643;SDS011;32371;51.032;5.816;2024-01-07T13:49:39;12.30;;;5.30;;
46643;SDS011;32371;51.032;5.816;2024-01-07T13:52:05;10.15;;;5.07;;
46643;SDS011;32371;51.032;5.816;2024-01-07T13:54:31;8.25;;;5.72;;
46643;SDS011;32371;51.032;5.816;2024-01-07T13:56:56;5.70;;;4.25;;
46643;SDS011;32371;51.032;5.816;2024-01-07T13:59:21;7.57;;;4.10;;
46643;SDS011;32371;51.032;5.816;2024-01-07T14:01:48;9.50;;;4.13;;
46643;SDS011;32371;51.032;5.816;2024-01-07T14:04:13;8.77;;;4.10;;
46643;SDS011;32371;51.032;5.816;2024-01-07T14:06:38;6.47;;;4.32;;
46643;SDS011;32371;51.032;5.816;2024-01-07T14:09:05;5.63;;;4.40;;
46643;SDS011;32371;51.032;5.816;2024-01-07T14:11:31;7.03;;;3.80;;
46643;SDS011;32371;51.032;5.816;2024-01-07T14:13:56;5.72;;;3.97;;
46643;SDS011;32371;51.032;5.816;2024-01-07T14:16:22;6.05;;;4.22;;
46643;SDS011;32371;51.032;5.816;2024-01-07T14:18:47;9.20;;;4.22;;
46643;SDS011;32371;51.032;5.816;2024-01-07T14:21:13;6.35;;;4.47;;
46643;SDS011;32371;51.032;5.816;2024-01-07T14:23:38;7.60;;;5.13;;
46643;SDS011;32371;51.032;5.816;2024-01-07T14:26:03;6.40;;;3.65;;
46643;SDS011;32371;51.032;5.816;2024-01-07T14:28:29;5.15;;;3.72;;
46643;SDS011;32371;51.032;5.816;2024-01-07T14:30:54;6.22;;;4.07;;
46643;SDS011;32371;51.032;5.816;2024-01-07T14:33:19;4.90;;;3.50;;
46643;SDS011;32371;51.032;5.816;2024-01-07T14:35:45;4.85;;;3.90;;
46643;SDS011;32371;51.032;5.816;2024-01-07T14:38:10;5.60;;;3.10;;
46643;SDS011;32371;51.032;5.816;2024-01-07T14:40:36;6.55;;;3.40;;
46643;SDS011;32371;51.032;5.816;2024-01-07T14:43:01;5.97;;;3.85;;